< < Back
Terminal Aerodrome Forecast


Current Version              Previous Versions:   1  2  3  4  5  6  7  8  9  

Terminal Aerodrome Forecast

670
FTUS42 KTAE 051100
TAFVLD
TAF
KVLD 051121Z 0512/0612 20005KT 5SM BR OVC013
     FM051600 20008KT 3SM BR OVC008
     FM052200 30010KT 6SM -RA BR OVC014
     FM060400 34009KT P6SM OVC025=



Latest METAR

719
SAUS70 KWBC 051200 RRP
MTRVLD
METAR KVLD 051153Z 20008KT 10SM BKN010 OVC018 20/19 A3004 RMK AO2 SLP177
60001 70001 T02000189 10211 20200 50005


USA.gov is the U.S. government's official web portal to all federal, state and local government web resources and services.